createdAt,value
2019-05-15T00:01:29.907Z,4.17
2019-05-15T00:03:59.155Z,2.67
2019-05-15T00:06:28.688Z,2.33
2019-05-15T00:08:58.898Z,5.23
2019-05-15T00:11:28.769Z,3.93
2019-05-15T00:13:58.985Z,3.67
2019-05-15T00:16:29.031Z,3.17
2019-05-15T00:18:59.110Z,2.27
2019-05-15T00:21:28.930Z,5.47
2019-05-15T00:23:58.655Z,4.80
2019-05-15T00:26:30.075Z,2.47
2019-05-15T00:29:12.089Z,1.83
2019-05-15T00:31:30.646Z,2.63
2019-05-15T00:34:00.150Z,2.33
2019-05-15T00:36:29.401Z,4.17
2019-05-15T00:38:59.101Z,4.03
2019-05-15T00:41:28.949Z,5.03
2019-05-15T00:43:58.582Z,6.23
2019-05-15T00:46:29.050Z,3.97
2019-05-15T00:48:59.198Z,3.83
2019-05-15T00:51:28.679Z,2.60
2019-05-15T00:53:58.967Z,2.70
2019-05-15T00:56:28.504Z,3.83
2019-05-15T00:58:58.860Z,3.60
2019-05-15T01:01:28.670Z,4.03
2019-05-15T01:03:58.649Z,2.93
2019-05-15T01:06:28.561Z,3.23
2019-05-15T01:08:58.890Z,4.33
2019-05-15T01:11:28.550Z,3.70
2019-05-15T01:13:58.515Z,4.03
2019-05-15T01:16:28.224Z,7.70
2019-05-15T01:18:58.535Z,3.70
2019-05-15T01:21:28.023Z,3.43
2019-05-15T01:23:58.939Z,1.90
2019-05-15T01:26:28.390Z,2.47
2019-05-15T01:28:58.365Z,3.23
2019-05-15T01:31:28.553Z,1.53
2019-05-15T01:33:58.321Z,1.77
2019-05-15T01:36:28.801Z,2.33
2019-05-15T01:38:58.505Z,4.37
2019-05-15T01:41:28.212Z,15.10
2019-05-15T01:43:58.129Z,3.13
2019-05-15T01:46:28.531Z,1.87
2019-05-15T01:48:58.617Z,2.07
2019-05-15T01:51:28.576Z,2.53
2019-05-15T01:53:58.394Z,3.07
2019-05-15T01:56:29.311Z,2.57
2019-05-15T01:58:58.612Z,3.33
2019-05-15T02:01:28.408Z,2.67
2019-05-15T02:03:58.977Z,2.53
2019-05-15T02:06:28.661Z,3.37
2019-05-15T02:08:58.730Z,3.40
2019-05-15T02:11:29.002Z,3.03
2019-05-15T02:13:58.673Z,2.67
2019-05-15T02:16:28.683Z,2.80
2019-05-15T02:18:58.364Z,2.83
2019-05-15T02:21:28.820Z,3.60
2019-05-15T02:23:58.778Z,4.83
2019-05-15T02:26:28.448Z,2.50
2019-05-15T02:28:57.610Z,2.73
2019-05-15T02:31:29.769Z,2.53
2019-05-15T02:33:59.004Z,3.27
2019-05-15T02:36:29.351Z,3.40
2019-05-15T02:38:59.700Z,3.37
2019-05-15T02:41:29.978Z,4.10
2019-05-15T02:43:59.350Z,3.47
2019-05-15T02:46:30.067Z,3.57
2019-05-15T02:48:59.567Z,3.10
2019-05-15T02:51:29.914Z,3.33
2019-05-15T02:53:59.305Z,3.70
2019-05-15T02:56:29.317Z,2.33
2019-05-15T02:58:59.882Z,2.40
2019-05-15T03:01:29.476Z,4.93
2019-05-15T03:03:59.573Z,2.97
2019-05-15T03:06:29.871Z,3.37
2019-05-15T03:08:59.684Z,4.43
2019-05-15T03:11:29.650Z,5.83
2019-05-15T03:13:59.388Z,3.73
2019-05-15T03:16:30.395Z,4.60
2019-05-15T03:19:00.038Z,4.30
2019-05-15T03:21:29.605Z,2.77
2019-05-15T03:23:59.595Z,2.77
2019-05-15T03:26:29.801Z,4.37
2019-05-15T03:28:59.257Z,3.23
2019-05-15T03:31:43.525Z,2.60
2019-05-15T03:34:03.033Z,2.37
2019-05-15T03:36:32.038Z,2.87
2019-05-15T03:39:01.204Z,2.10
2019-05-15T03:41:30.466Z,2.37
2019-05-15T03:43:59.779Z,2.40
2019-05-15T03:46:29.309Z,3.80
2019-05-15T03:49:00.349Z,3.60
2019-05-15T03:51:30.114Z,2.80
2019-05-15T03:54:03.213Z,2.17
2019-05-15T03:56:33.443Z,3.27
2019-05-15T03:59:05.497Z,3.07
2019-05-15T04:01:43.179Z,2.83
2019-05-15T04:04:09.664Z,3.93
2019-05-15T04:06:40.209Z,3.63
2019-05-15T04:09:10.276Z,3.33
2019-05-15T04:11:40.655Z,2.80
2019-05-15T04:14:11.551Z,2.57
2019-05-15T04:16:44.058Z,5.60
2019-05-15T04:19:19.092Z,2.77
2019-05-15T04:21:49.399Z,4.63
2019-05-15T04:24:19.888Z,4.73
2019-05-15T04:26:50.568Z,5.20
2019-05-15T04:29:20.438Z,5.60
2019-05-15T04:31:59.813Z,4.83
2019-05-15T04:34:21.439Z,3.33
2019-05-15T04:36:51.324Z,2.40
2019-05-15T04:39:21.286Z,4.20
2019-05-15T04:41:50.948Z,2.97
2019-05-15T04:44:21.000Z,2.57
2019-05-15T04:46:51.189Z,4.90
2019-05-15T04:49:21.412Z,3.13
2019-05-15T04:51:51.606Z,2.10
2019-05-15T04:54:21.775Z,4.07
2019-05-15T04:56:51.996Z,5.73
2019-05-15T04:59:22.628Z,3.13
2019-05-15T05:02:13.003Z,3.40
2019-05-15T05:04:25.449Z,2.27
2019-05-15T05:06:58.524Z,2.17
2019-05-15T05:09:28.795Z,2.70
2019-05-15T05:11:58.931Z,2.97
2019-05-15T05:14:28.767Z,3.83
2019-05-15T05:16:59.321Z,2.40
2019-05-15T05:19:29.317Z,3.87
2019-05-15T05:21:59.153Z,3.27
2019-05-15T05:24:30.195Z,3.00
2019-05-15T05:26:59.916Z,4.40
2019-05-15T05:29:29.624Z,5.03
2019-05-15T05:31:59.227Z,4.73
2019-05-15T05:34:28.967Z,6.07
2019-05-15T05:36:59.222Z,4.53
2019-05-15T05:39:29.428Z,6.23
2019-05-15T05:41:59.602Z,3.33
2019-05-15T05:44:30.242Z,3.80
2019-05-15T05:47:00.508Z,4.43
2019-05-15T05:49:30.577Z,4.73
2019-05-15T05:51:59.903Z,6.00
2019-05-15T05:54:29.178Z,3.90
2019-05-15T05:56:58.664Z,3.60
2019-05-15T05:59:28.564Z,5.07
2019-05-15T06:01:58.939Z,4.93
2019-05-15T06:04:28.521Z,4.20
2019-05-15T06:07:09.211Z,3.93
2019-05-15T06:09:32.559Z,3.73
2019-05-15T06:12:04.121Z,3.73
2019-05-15T06:14:34.808Z,3.60
2019-05-15T06:17:08.206Z,2.90
2019-05-15T06:19:38.609Z,4.10
2019-05-15T06:22:09.303Z,6.90
2019-05-15T06:24:38.729Z,4.90
2019-05-15T06:27:08.302Z,3.07
2019-05-15T06:29:37.926Z,4.33
2019-05-15T06:32:07.980Z,3.50
2019-05-15T06:34:38.072Z,2.60
2019-05-15T06:37:08.354Z,4.67
2019-05-15T06:39:39.057Z,2.93
2019-05-15T06:42:08.863Z,2.83
2019-05-15T06:44:39.660Z,2.37
2019-05-15T06:47:10.401Z,3.30
2019-05-15T06:49:39.812Z,3.70
2019-05-15T06:52:09.910Z,1.73
2019-05-15T06:54:39.361Z,2.80
2019-05-15T06:57:09.214Z,2.30
2019-05-15T06:59:39.027Z,2.97
2019-05-15T07:02:08.481Z,6.10
2019-05-15T07:04:38.416Z,3.03
2019-05-15T07:07:10.627Z,3.47
2019-05-15T07:09:39.162Z,3.67
2019-05-15T07:12:08.601Z,1.80
2019-05-15T07:14:38.130Z,2.13
2019-05-15T07:17:09.330Z,2.60
2019-05-15T07:19:39.395Z,2.17
2019-05-15T07:22:09.588Z,1.00
2019-05-15T07:24:38.833Z,3.30
2019-05-15T07:27:08.454Z,1.97
2019-05-15T07:29:38.539Z,1.67
2019-05-15T07:32:08.153Z,3.50
2019-05-15T07:34:37.938Z,1.70
2019-05-15T07:37:09.647Z,5.37
2019-05-15T07:39:38.308Z,4.07
2019-05-15T07:42:08.605Z,3.63
2019-05-15T07:44:38.819Z,2.60
2019-05-15T07:47:08.877Z,1.90
2019-05-15T07:49:38.830Z,1.83
2019-05-15T07:52:08.741Z,1.50
2019-05-15T07:54:38.403Z,2.20
2019-05-15T07:57:08.958Z,1.77
2019-05-15T07:59:38.753Z,1.90
2019-05-15T08:02:08.498Z,2.30
2019-05-15T08:04:38.187Z,1.50
2019-05-15T08:07:09.163Z,2.73
2019-05-15T08:09:39.085Z,2.37
2019-05-15T08:12:08.360Z,1.43
2019-05-15T08:14:38.806Z,1.63
2019-05-15T08:17:08.765Z,3.40
2019-05-15T08:19:38.524Z,2.83
2019-05-15T08:22:08.905Z,3.10
2019-05-15T08:24:39.087Z,6.50
2019-05-15T08:27:08.906Z,1.70
2019-05-15T08:29:38.395Z,1.60
2019-05-15T08:32:08.413Z,2.20
2019-05-15T08:34:38.703Z,1.40
2019-05-15T08:37:08.033Z,1.70
2019-05-15T08:39:38.213Z,2.87
2019-05-15T08:42:08.037Z,3.00
2019-05-15T08:44:38.686Z,3.40
2019-05-15T08:47:08.240Z,1.70
2019-05-15T08:49:40.945Z,2.30
2019-05-15T08:52:10.220Z,3.80
2019-05-15T08:54:39.601Z,1.63
2019-05-15T08:57:09.439Z,2.70
2019-05-15T08:59:38.620Z,2.60
2019-05-15T09:02:07.964Z,2.47
2019-05-15T09:04:38.695Z,9.33
2019-05-15T09:07:09.286Z,2.63
2019-05-15T09:09:38.672Z,2.53
2019-05-15T09:12:08.392Z,3.23
2019-05-15T09:14:38.096Z,1.60
2019-05-15T09:17:08.711Z,1.90
2019-05-15T09:19:38.764Z,2.27
2019-05-15T09:22:09.152Z,2.90
2019-05-15T09:24:38.558Z,2.77
2019-05-15T09:27:09.909Z,2.10
2019-05-15T09:29:38.728Z,2.30
2019-05-15T09:32:08.654Z,8.13
2019-05-15T09:34:50.648Z,2.40
2019-05-15T09:37:09.891Z,3.23
2019-05-15T09:39:39.182Z,4.13
2019-05-15T09:42:08.603Z,6.63
2019-05-15T09:44:39.159Z,9.80
2019-05-15T09:47:09.250Z,3.40
2019-05-15T09:49:58.920Z,2.27
2019-05-15T09:52:29.866Z,3.20
2019-05-15T09:54:59.823Z,2.43
2019-05-15T09:57:30.177Z,3.50
2019-05-15T09:59:59.563Z,3.53
2019-05-15T10:02:29.141Z,2.77
2019-05-15T10:05:06.500Z,1.60
2019-05-15T10:07:29.754Z,2.27
2019-05-15T10:09:59.371Z,2.87
2019-05-15T10:12:34.592Z,3.22
2019-05-15T10:15:00.057Z,4.15
2019-05-15T10:17:29.331Z,3.77
2019-05-15T10:19:58.920Z,3.87
2019-05-15T10:22:28.345Z,2.27
2019-05-15T10:24:58.734Z,3.13
2019-05-15T10:27:28.767Z,4.50
2019-05-15T10:29:58.835Z,6.40
2019-05-15T10:32:28.974Z,2.20
2019-05-15T10:34:58.692Z,3.17
2019-05-15T10:37:28.600Z,3.00
2019-05-15T10:39:58.547Z,3.02
2019-05-15T10:42:28.963Z,3.00
2019-05-15T10:44:58.905Z,2.80
2019-05-15T10:47:28.944Z,2.67
2019-05-15T10:50:00.171Z,3.37
2019-05-15T10:52:29.507Z,2.00
2019-05-15T10:55:00.904Z,1.72
2019-05-15T10:57:29.646Z,3.60
2019-05-15T10:59:58.881Z,2.62
2019-05-15T11:02:28.958Z,12.23
2019-05-15T11:04:58.346Z,2.67
2019-05-15T11:07:28.428Z,3.90
2019-05-15T11:09:58.226Z,3.17
2019-05-15T11:12:29.267Z,2.60
2019-05-15T11:14:59.063Z,2.40
2019-05-15T11:17:28.651Z,1.67
2019-05-15T11:19:59.573Z,3.22
2019-05-15T11:22:29.814Z,1.77
2019-05-15T11:24:59.510Z,1.85
2019-05-15T11:27:31.338Z,4.65
2019-05-15T11:29:59.834Z,3.10
2019-05-15T11:32:29.723Z,4.45
2019-05-15T11:34:59.463Z,3.55
2019-05-15T11:37:29.044Z,3.55
2019-05-15T11:39:58.951Z,3.87
2019-05-15T11:42:28.964Z,110.72
2019-05-15T11:44:58.620Z,3.17
2019-05-15T11:47:27.948Z,1.70
2019-05-15T11:49:58.469Z,4.17
2019-05-15T11:52:29.482Z,2.45
2019-05-15T11:54:59.295Z,2.45
2019-05-15T11:57:39.604Z,4.30
2019-05-15T11:59:59.794Z,3.65
2019-05-15T12:02:29.406Z,5.33
2019-05-15T12:04:58.838Z,2.02
2019-05-15T12:07:29.000Z,5.50
2019-05-15T12:09:58.334Z,10.63
2019-05-15T12:12:31.471Z,6.15
2019-05-15T12:14:58.572Z,5.85
2019-05-15T12:17:28.430Z,3.50
2019-05-15T12:20:04.823Z,3.42
2019-05-15T12:22:29.146Z,5.50
2019-05-15T12:25:00.638Z,3.17
2019-05-15T12:27:29.286Z,2.62
2019-05-15T12:29:59.934Z,2.25
2019-05-15T12:32:35.848Z,2.83
2019-05-15T12:35:00.259Z,2.80
2019-05-15T12:37:29.729Z,4.65
2019-05-15T13:00:10.569Z,1.72
2019-05-15T13:02:40.157Z,2.05
2019-05-15T13:05:09.974Z,1.77
2019-05-15T13:07:39.205Z,2.80
2019-05-15T13:10:10.082Z,1.32
2019-05-15T13:12:55.242Z,4.50
2019-05-15T13:15:10.726Z,2.95
2019-05-15T13:17:40.057Z,1.32
2019-05-15T13:20:09.746Z,2.75
2019-05-15T13:22:39.555Z,3.05
2019-05-15T13:25:09.482Z,4.05
2019-05-15T13:27:38.968Z,5.87
2019-05-15T13:30:09.357Z,2.17
2019-05-15T13:32:41.166Z,3.37
2019-05-15T13:35:10.279Z,9.33
2019-05-15T13:37:39.593Z,3.15
2019-05-15T13:40:09.394Z,3.90
2019-05-15T13:42:39.116Z,7.22
2019-05-15T13:45:12.712Z,3.27
2019-05-15T13:47:40.498Z,2.42
2019-05-15T13:50:10.936Z,3.77
2019-05-15T13:52:40.198Z,3.27
2019-05-15T13:55:09.543Z,10.50
2019-05-15T13:57:38.721Z,2.83
2019-05-15T14:00:09.080Z,4.72
2019-05-15T14:02:38.789Z,3.02
2019-05-15T14:05:09.627Z,3.45
2019-05-15T14:07:48.682Z,3.40
2019-05-15T14:10:10.756Z,6.40
2019-05-15T14:12:39.965Z,3.35
2019-05-15T14:15:09.739Z,5.45
2019-05-15T14:17:38.993Z,3.50
2019-05-15T14:20:12.266Z,1.62
2019-05-15T14:22:41.627Z,2.95
2019-05-15T14:25:11.214Z,5.40
2019-05-15T14:27:40.903Z,6.05
2019-05-15T14:30:12.174Z,6.50
2019-05-15T14:32:41.464Z,3.77
2019-05-15T14:35:10.685Z,10.03
2019-05-15T14:37:40.006Z,2.75
2019-05-15T14:40:09.951Z,8.28
2019-05-15T14:42:39.931Z,5.47
2019-05-15T14:45:09.809Z,8.10
2019-05-15T14:47:40.209Z,4.47
2019-05-15T14:50:10.298Z,6.50
2019-05-15T14:52:40.064Z,3.25
2019-05-15T14:55:09.687Z,4.22
2019-05-15T14:57:39.663Z,2.33
2019-05-15T15:00:09.564Z,1.52
2019-05-15T15:02:39.263Z,2.47
2019-05-15T15:05:09.312Z,2.92
2019-05-15T15:07:38.873Z,2.40
2019-05-15T15:10:08.554Z,3.17
2019-05-15T15:12:39.606Z,3.83
2019-05-15T15:15:10.506Z,4.03
2019-05-15T15:17:39.954Z,3.42
2019-05-15T15:20:09.438Z,1.70
2019-05-15T15:22:39.690Z,1.65
2019-05-15T15:25:09.992Z,2.47
2019-05-15T15:27:39.348Z,16.57
2019-05-15T15:30:09.492Z,21.62
2019-05-15T15:32:38.997Z,7.60
2019-05-15T15:35:09.338Z,3.35
2019-05-15T15:37:39.066Z,17.50
2019-05-15T15:40:08.654Z,11.40
2019-05-15T15:42:39.431Z,6.15
2019-05-15T15:45:09.439Z,3.05
2019-05-15T15:47:39.203Z,6.22
2019-05-15T15:50:09.425Z,4.92
2019-05-15T15:52:39.181Z,4.08
2019-05-15T15:55:09.101Z,3.55
2019-05-15T15:57:39.606Z,2.62
2019-05-15T16:00:10.426Z,4.08
2019-05-15T16:02:40.997Z,14.18
2019-05-15T16:05:11.358Z,10.95
2019-05-15T16:07:43.358Z,11.12
2019-05-15T16:10:12.018Z,7.80
2019-05-15T16:12:41.992Z,21.42
2019-05-15T16:15:11.758Z,6.15
2019-05-15T16:17:40.997Z,8.10
2019-05-15T16:20:11.421Z,14.53
2019-05-15T16:22:43.124Z,10.05
2019-05-15T16:25:12.193Z,11.75
2019-05-15T16:27:41.810Z,5.97
2019-05-15T16:30:11.735Z,7.75
2019-05-15T16:32:41.386Z,8.70
2019-05-15T16:35:11.332Z,11.12
2019-05-15T16:37:41.077Z,36.10
2019-05-15T16:40:10.908Z,19.40
2019-05-15T16:42:40.331Z,8.48
2019-05-15T16:45:10.023Z,1.57
2019-05-15T16:47:39.678Z,5.37
2019-05-15T16:50:10.322Z,9.48
2019-05-15T16:52:39.747Z,5.45
2019-05-15T16:55:09.817Z,6.25
2019-05-15T16:57:39.472Z,8.13
2019-05-15T17:00:10.015Z,19.27
2019-05-15T17:02:40.281Z,6.28
2019-05-15T17:05:10.501Z,8.90
2019-05-15T17:07:39.841Z,10.43
2019-05-15T17:10:09.367Z,9.85
2019-05-15T17:12:39.214Z,12.10
2019-05-15T17:15:09.070Z,6.80
2019-05-15T17:17:39.897Z,13.75
2019-05-15T17:20:10.323Z,13.40
2019-05-15T17:22:39.795Z,12.63
2019-05-15T17:25:09.727Z,16.42
2019-05-15T17:27:39.373Z,8.53
2019-05-15T17:30:09.738Z,3.55
2019-05-15T17:32:40.031Z,8.73
2019-05-15T17:35:10.723Z,9.78
2019-05-15T17:37:40.837Z,11.28
2019-05-15T17:40:11.067Z,18.80
2019-05-15T17:42:49.284Z,10.18
2019-05-15T17:45:19.600Z,7.78
2019-05-15T17:47:49.808Z,4.03
2019-05-15T17:50:19.448Z,5.80
2019-05-15T17:52:49.359Z,4.60
2019-05-15T17:55:18.964Z,4.70
2019-05-15T17:57:56.590Z,5.45
2019-05-15T18:00:20.182Z,46.00
2019-05-15T18:02:51.046Z,12.58
2019-05-15T18:05:20.599Z,2.22
2019-05-15T18:07:50.284Z,14.75
2019-05-15T18:10:20.919Z,27.48
2019-05-15T18:12:50.870Z,36.17
2019-05-15T18:15:20.513Z,4.70
2019-05-15T18:17:50.345Z,16.32
2019-05-15T18:20:29.176Z,41.40
2019-05-15T18:22:59.086Z,56.10
2019-05-15T18:25:29.080Z,10.00
2019-05-15T18:27:59.451Z,13.18
2019-05-15T18:30:29.109Z,3.27
2019-05-15T18:32:59.024Z,11.37
2019-05-15T18:35:30.184Z,5.20
2019-05-15T18:38:00.610Z,10.55
2019-05-15T18:40:30.851Z,9.03
2019-05-15T18:43:00.413Z,9.60
2019-05-15T18:45:30.407Z,11.77
2019-05-15T18:48:00.043Z,15.97
2019-05-15T18:50:29.692Z,29.77
2019-05-15T18:52:59.362Z,32.63
2019-05-15T18:55:28.883Z,22.23
2019-05-15T18:57:58.631Z,17.73
2019-05-15T19:00:29.519Z,31.17
2019-05-15T19:03:00.125Z,24.80
2019-05-15T19:05:29.984Z,26.87
2019-05-15T19:07:59.660Z,64.10
2019-05-15T19:10:29.237Z,38.23
2019-05-15T19:12:58.879Z,62.00
2019-05-15T19:15:30.405Z,88.10
2019-05-15T19:18:00.355Z,103.80
2019-05-15T19:20:31.791Z,24.77
2019-05-15T19:23:01.400Z,68.77
2019-05-15T19:25:31.007Z,60.23
2019-05-15T19:28:01.379Z,61.70
2019-05-15T19:30:30.970Z,51.20
2019-05-15T19:33:00.795Z,22.93
2019-05-15T19:35:30.825Z,17.53
2019-05-15T19:38:00.682Z,17.63
2019-05-15T19:40:30.286Z,9.43
2019-05-15T19:43:03.774Z,11.87
2019-05-15T19:45:30.936Z,6.40
2019-05-15T19:48:00.849Z,5.17
2019-05-15T19:50:30.265Z,1.50
2019-05-15T19:52:59.646Z,2.10
2019-05-15T19:55:29.395Z,8.13
2019-05-15T19:57:59.015Z,3.40
2019-05-15T20:00:28.720Z,2.57
2019-05-15T20:02:59.602Z,2.73
2019-05-15T20:05:29.292Z,2.13
2019-05-15T20:07:58.977Z,1.10
2019-05-15T20:10:29.450Z,2.03
2019-05-15T20:12:59.591Z,2.03
2019-05-15T20:15:28.977Z,2.97
2019-05-15T20:17:58.254Z,7.10
2019-05-15T20:20:28.500Z,1.93
2019-05-15T20:22:59.964Z,1.43
2019-05-15T20:25:29.018Z,3.17
2019-05-15T20:27:58.387Z,1.40
2019-05-15T20:30:28.585Z,2.47
2019-05-15T20:32:58.486Z,7.83
2019-05-15T20:35:28.640Z,2.13
2019-05-15T20:37:58.377Z,2.97
2019-05-15T20:40:30.619Z,1.40
2019-05-15T20:42:59.858Z,2.17
2019-05-15T20:45:29.376Z,1.40
2019-05-15T20:48:00.426Z,1.77
2019-05-15T20:50:30.387Z,2.03
2019-05-15T20:52:59.997Z,5.50
2019-05-15T20:55:29.957Z,2.50
2019-05-15T20:57:59.455Z,3.87
2019-05-15T21:00:29.737Z,4.27
2019-05-15T21:03:00.223Z,2.90
2019-05-15T21:05:30.153Z,1.90
2019-05-15T21:08:00.366Z,3.47
2019-05-15T21:10:42.851Z,4.37
2019-05-15T21:13:31.229Z,3.07
2019-05-15T21:16:42.094Z,2.77
2019-05-15T21:19:13.914Z,1.67
2019-05-15T21:21:52.266Z,2.30
2019-05-15T21:24:22.414Z,3.40
2019-05-15T21:26:58.121Z,4.43
2019-05-15T21:29:27.835Z,3.43
2019-05-15T21:32:15.870Z,4.53
2019-05-15T21:34:58.275Z,2.47
2019-05-15T21:37:51.628Z,2.53
2019-05-15T21:41:09.766Z,1.77
2019-05-15T21:43:45.627Z,2.00
2019-05-15T21:46:20.752Z,1.43
2019-05-15T21:48:50.321Z,2.37
2019-05-15T21:51:19.719Z,2.03
2019-05-15T21:53:49.571Z,2.30
2019-05-15T21:56:19.009Z,2.23
2019-05-15T21:58:48.639Z,4.03
2019-05-15T22:01:19.594Z,6.97
2019-05-15T22:03:49.389Z,6.07
2019-05-15T22:06:18.896Z,7.97
2019-05-15T22:08:48.352Z,7.00
2019-05-15T22:11:18.665Z,2.03
2019-05-15T22:13:49.606Z,5.80
2019-05-15T22:16:20.272Z,2.60
2019-05-15T22:18:49.749Z,22.17
2019-05-15T22:21:19.186Z,7.13
2019-05-15T22:23:48.607Z,4.60
2019-05-15T22:26:21.321Z,2.00
2019-05-15T22:28:49.094Z,2.90
2019-05-15T22:31:18.604Z,4.87
2019-05-15T22:33:48.423Z,10.97
2019-05-15T22:36:18.817Z,15.93
2019-05-15T22:38:50.306Z,2.83
2019-05-15T22:41:19.346Z,2.80
2019-05-15T22:43:49.082Z,1.87
2019-05-15T22:46:18.740Z,1.70
2019-05-15T22:48:48.655Z,2.33
2019-05-15T22:51:18.578Z,1.90
2019-05-15T22:53:48.846Z,1.47
2019-05-15T22:56:18.536Z,1.33
2019-05-15T22:58:48.174Z,1.77
2019-05-15T23:01:18.774Z,2.00
2019-05-15T23:03:48.723Z,4.30
2019-05-15T23:06:18.532Z,2.23
2019-05-15T23:08:48.876Z,1.93
2019-05-15T23:11:18.711Z,8.03
2019-05-15T23:13:48.673Z,4.80
2019-05-15T23:16:18.975Z,5.80
2019-05-15T23:18:49.771Z,3.67
2019-05-15T23:21:19.554Z,3.17
2019-05-15T23:23:49.129Z,1.53
2019-05-15T23:26:18.638Z,2.53
2019-05-15T23:28:48.350Z,4.67
2019-05-15T23:31:18.847Z,3.23
2019-05-15T23:33:48.797Z,1.70
2019-05-15T23:36:18.448Z,1.67
2019-05-15T23:38:48.255Z,1.33
2019-05-15T23:41:18.950Z,2.30
2019-05-15T23:43:48.810Z,1.40
2019-05-15T23:46:18.590Z,2.47
2019-05-15T23:48:48.669Z,2.90
2019-05-15T23:51:19.005Z,3.13
2019-05-15T23:53:48.689Z,6.00
2019-05-15T23:56:19.141Z,2.80
2019-05-15T23:58:48.808Z,2.10
